Eit Paloma — V2QI2 — position and weather

sailwx.info

Track history (hours):
 
Tides and Currents Weather Stations Pressure Air Temp Water Temp Dewpoint Dewpoint Depression Visibility Wind Speed Wind Dir Waves Ship Positions

Eit Paloma

Last reported at 2017-Aug-28 04:01 UTC. Time now 2017-Sep-23 14:47 UTC.
Position N 30°22' E 032°22'.
Warning: this ship's position is 26 days out of date.

Length 142 m; draft 6 m.

Type: Cargo ship. MMSI: 305789000.

Date/timePositionNaut miles runAvg speedWind from/ knotsBaromVisibWave heightAir tempDewpointWater temp
2017-Aug-28 04:01N 30°22' E 032°22'010.3
2017-Aug-28 03:58N 30°22' E 032°22'510.7
2017-Aug-28 03:29N 30°27' E 032°21'610.4
2017-Aug-28 02:58N 30°33' E 032°19'4 8.2
2017-Aug-28 02:30N 30°36' E 032°19'5 9.2
2017-Aug-28 02:00N 30°41' E 032°20'4 8.7
2017-Aug-28 01:30N 30°45' E 032°19'4 8.9
2017-Aug-28 01:01N 30°49' E 032°19'8 9.0
2017-Aug-28 00:07N 30°57' E 032°19'2 9.2
2017-Aug-27 23:56N 30°59' E 032°19'4 8.9
2017-Aug-27 23:30N 31°03' E 032°19'5 9.1
2017-Aug-27 23:00N 31°07' E 032°19'6 9.2
2017-Aug-27 22:22N 31°13' E 032°21'4 9.8
2017-Aug-27 21:59N 31°17' E 032°22'5 9.8
2017-Aug-27 21:27N 31°22' E 032°23'1 1.9
2017-Aug-27 21:00N 31°22' E 032°22'1 2.7
2017-Aug-27 20:30N 31°22' E 032°21'1 0.4
2017-Aug-27 18:06N 31°21' E 032°19'0 0.1
2017-Aug-27 18:00N 31°21' E 032°19'0 0.0
2017-Aug-27 17:24N 31°21' E 032°19'0 0.0
2017-Aug-27 16:54N 31°21' E 032°19'0 0.0
2017-Aug-27 14:48N 31°21' E 032°19'0 0.0
2017-Aug-27 13:36N 31°21' E 032°19'0 0.1
2017-Aug-27 13:30N 31°21' E 032°19'0 0.0
2017-Aug-27 13:00N 31°21' E 032°19'0 0.0
2017-Aug-27 12:30N 31°21' E 032°19'0 0.0
2017-Aug-27 12:00N 31°21' E 032°19'0 0.0
2017-Aug-27 05:38N 31°21' E 032°19'1 3.4
2017-Aug-27 05:22N 31°22' E 032°19'3 8.0
2017-Aug-27 05:00N 31°25' E 032°19'713.4
2017-Aug-27 04:31N 31°30' E 032°14'814.3
2017-Aug-27 03:59N 31°36' E 032°08'814.1
2017-Aug-27 03:26N 31°41' E 032°01'1313.9
2017-Aug-27 02:30N 31°48' E 031°48'1614.1
2017-Aug-27 01:24N 31°54' E 031°32'614.2
2017-Aug-27 01:00N 31°56' E 031°26'914.3
2017-Aug-27 00:23N 32°01' E 031°16'514.4
2017-Aug-27 00:00N 32°03' E 031°10'2014.7
2017-Aug-26 22:39N 32°10' E 030°49'314.9
2017-Aug-26 22:25N 32°12' E 030°45'1314.5
2017-Aug-26 21:33N 32°17' E 030°32'114.4
2017-Aug-26 21:30N 32°17' E 030°31'714.2
2017-Aug-26 21:00N 32°20' E 030°23'714.2
2017-Aug-26 20:29N 32°23' E 030°15'1214.2
2017-Aug-26 19:39N 32°27' E 030°02'61413.3
2017-Aug-24 21:16N 35°26' E 018°13'16711.5
2017-Aug-24 06:49N 36°14' E 014°57'514.3
2017-Aug-24 06:30N 36°15' E 014°51'714.3
2017-Aug-24 06:00N 36°18' E 014°43'714.3
2017-Aug-24 05:30N 36°20' E 014°35'714.1
2017-Aug-24 05:00N 36°22' E 014°26'713.8
2017-Aug-24 04:30N 36°24' E 014°18'714.1
2017-Aug-24 04:00N 36°26' E 014°09'714.1
2017-Aug-24 03:29N 36°28' E 014°01'714.1
2017-Aug-24 03:00N 36°30' E 013°53'714.1
2017-Aug-24 02:30N 36°32' E 013°44'714.2
2017-Aug-24 01:59N 36°34' E 013°36'714.2
2017-Aug-24 01:29N 36°36' E 013°27'714.1
2017-Aug-24 01:00N 36°38' E 013°19'713.8
2017-Aug-24 00:30N 36°40' E 013°11'713.8
2017-Aug-23 23:59N 36°43' E 013°03'713.7
2017-Aug-23 23:30N 36°45' E 012°55'713.5
2017-Aug-23 23:00N 36°48' E 012°47'713.4
2017-Aug-23 22:30N 36°51' E 012°40'713.3
2017-Aug-23 22:00N 36°54' E 012°32'713.4
2017-Aug-23 21:30N 36°56' E 012°25'713.1
2017-Aug-23 21:00N 36°59' E 012°17'14113.4
2017-Aug-23 10:29N 37°39' E 009°27'714.1
2017-Aug-23 10:00N 37°40' E 009°18'714.3
2017-Aug-23 09:30N 37°41' E 009°10'714.3
2017-Aug-23 09:00N 37°42' E 009°01'2214.0
2017-Aug-23 07:27N 37°44' E 008°33'613.8
2017-Aug-23 07:00N 37°43' E 008°26'814.0
2017-Aug-23 06:27N 37°41' E 008°16'714.6
2017-Aug-23 05:59N 37°40' E 008°08'714.6
2017-Aug-23 05:30N 37°39' E 007°59'814.2
2017-Aug-23 04:56N 37°38' E 007°48'1514.0
2017-Aug-23 03:53N 37°36' E 007°30'1214.4
2017-Aug-23 03:03N 37°34' E 007°15'514.1
2017-Aug-23 02:42N 37°33' E 007°09'314.0
2017-Aug-23 02:30N 37°33' E 007°06'713.8
2017-Aug-23 01:59N 37°31' E 006°57'3813.6
2017-Aug-22 23:10N 37°25' E 006°09'6013.5
2017-Aug-22 18:42N 37°16' E 004°54'514.0
2017-Aug-22 18:19N 37°15' E 004°48'614.1
2017-Aug-22 17:53N 37°14' E 004°40'614.1
2017-Aug-22 17:30N 37°13' E 004°33'713.7
2017-Aug-22 16:59N 37°12' E 004°25'913.9
2017-Aug-22 16:21N 37°11' E 004°14'2913.7
2017-Aug-22 14:16N 37°07' E 003°38'4213.7
2017-Aug-22 11:11N 36°60' E 002°46'5913.2
2017-Aug-22 06:42N 36°50' E 001°33'513.3
2017-Aug-22 06:20N 36°50' E 001°27'413.5
2017-Aug-22 06:00N 36°49' E 001°22'1313.6
2017-Aug-22 05:03N 36°47' E 001°05'113.9
2017-Aug-22 05:00N 36°47' E 001°05'713.4
2017-Aug-22 04:29N 36°46' E 000°56'613.3
2017-Aug-22 04:00N 36°45' E 000°48'713.7
2017-Aug-22 03:29N 36°44' E 000°40'713.5
2017-Aug-22 03:00N 36°43' E 000°31'713.2
2017-Aug-22 02:30N 36°42' E 000°23'713.0
2017-Aug-22 02:00N 36°41' E 000°15'712.9
2017-Aug-22 01:30N 36°40' E 000°07'712.9
2017-Aug-22 00:57N 36°38' W 000°01'812.6
2017-Aug-22 00:21N 36°37' W 000°11'512.5
2017-Aug-21 23:59N 36°36' W 000°16'612.7
2017-Aug-21 23:30N 36°36' W 000°24'712.9
2017-Aug-21 23:00N 36°35' W 000°32'613.0
2017-Aug-21 22:30N 36°34' W 000°40'611.8
2017-Aug-21 22:00N 36°33' W 000°47'812.8
2017-Aug-21 21:24N 36°32' W 000°57'712.9
2017-Aug-21 20:51N 36°30' W 001°05'19913.4
2017-Aug-21 05:57N 36°01' W 005°09'613.9
2017-Aug-21 05:31N 35°60' W 005°17'713.0
2017-Aug-21 05:01N 35°58' W 005°25'2213.9
2017-Aug-21 03:27N 35°55' W 005°51'7312.2
2017-Aug-20 21:31N 36°08' W 007°19'112.3
2017-Aug-20 21:27N 36°08' W 007°20'912.4
2017-Aug-20 20:43N 36°11' W 007°31'612.6
2017-Aug-20 20:12N 36°13' W 007°39'1513.3
2017-Aug-20 19:04N 36°16' W 007°57'10112.4
2017-Aug-20 10:56N 37°13' W 009°41'613.9
2017-Aug-20 10:30N 37°18' W 009°43'713.9
2017-Aug-20 10:00N 37°25' W 009°45'714.0
2017-Aug-20 09:30N 37°32' W 009°46'713.7
2017-Aug-20 09:01N 37°38' W 009°48'713.5
2017-Aug-20 08:30N 37°45' W 009°50'713.3
2017-Aug-20 08:01N 37°52' W 009°52'713.6
2017-Aug-20 07:30N 37°58' W 009°54'714.0
2017-Aug-20 07:01N 38°05' W 009°56'713.9
2017-Aug-20 06:30N 38°12' W 009°57'713.7
2017-Aug-20 06:00N 38°19' W 009°59'713.8
2017-Aug-20 05:30N 38°25' W 010°02'714.0
2017-Aug-20 05:00N 38°32' W 010°03'713.8
2017-Aug-20 04:30N 38°39' W 010°05'713.7
2017-Aug-20 04:00N 38°46' W 010°07'714.0
2017-Aug-20 03:30N 38°53' W 010°06'713.9
2017-Aug-20 03:00N 38°60' W 010°06'713.5
2017-Aug-20 02:30N 39°06' W 010°06'714.0
2017-Aug-20 02:01N 39°13' W 010°06'713.8
2017-Aug-20 01:30N 39°20' W 010°07'714.1
2017-Aug-20 01:00N 39°27' W 010°07'714.2
2017-Aug-20 00:30N 39°34' W 010°06'714.2
2017-Aug-20 00:00N 39°41' W 010°06'714.1
2017-Aug-19 23:30N 39°48' W 010°06'714.2
2017-Aug-19 23:00N 39°56' W 010°07'714.0
2017-Aug-19 22:30N 40°03' W 010°07'714.1
2017-Aug-19 22:00N 40°10' W 010°06'714.0
2017-Aug-19 21:30N 40°17' W 010°06'714.2
2017-Aug-19 21:00N 40°24' W 010°07'714.7
2017-Aug-19 20:30N 40°31' W 010°07'714.7
2017-Aug-19 20:00N 40°38' W 010°07'714.7
2017-Aug-19 19:30N 40°46' W 010°07'714.8
2017-Aug-19 19:00N 40°53' W 010°07'814.6
2017-Aug-19 18:27N 41°01' W 010°06'714.4
2017-Aug-19 18:00N 41°08' W 010°07'714.6
2017-Aug-19 17:30N 41°15' W 010°07'  
Track history (hours):
 
Tides and Currents Weather Stations Pressure Air Temp Water Temp Dewpoint Dewpoint Depression Visibility Wind Speed Wind Dir Waves Ship Positions

Eit Paloma

Last reported at 2017-Aug-28 04:01 UTC. Time now 2017-Sep-23 14:47 UTC.
Position N 30°22' E 032°22'.
Warning: this ship's position is 26 days out of date.

Length 142 m; draft 6 m.

Type: Cargo ship. MMSI: 305789000.

Date/timePositionNaut miles runAvg speedWind from/ knotsBaromVisibWave heightAir tempDewpointWater temp
2017-Aug-28 04:01N 30°22' E 032°22'010.3
2017-Aug-28 03:58N 30°22' E 032°22'510.7
2017-Aug-28 03:29N 30°27' E 032°21'610.4
2017-Aug-28 02:58N 30°33' E 032°19'4 8.2
2017-Aug-28 02:30N 30°36' E 032°19'5 9.2
2017-Aug-28 02:00N 30°41' E 032°20'4 8.7
2017-Aug-28 01:30N 30°45' E 032°19'4 8.9
2017-Aug-28 01:01N 30°49' E 032°19'8 9.0
2017-Aug-28 00:07N 30°57' E 032°19'2 9.2
2017-Aug-27 23:56N 30°59' E 032°19'4 8.9
2017-Aug-27 23:30N 31°03' E 032°19'5 9.1
2017-Aug-27 23:00N 31°07' E 032°19'6 9.2
2017-Aug-27 22:22N 31°13' E 032°21'4 9.8
2017-Aug-27 21:59N 31°17' E 032°22'5 9.8
2017-Aug-27 21:27N 31°22' E 032°23'1 1.9
2017-Aug-27 21:00N 31°22' E 032°22'1 2.7
2017-Aug-27 20:30N 31°22' E 032°21'1 0.4
2017-Aug-27 18:06N 31°21' E 032°19'0 0.1
2017-Aug-27 18:00N 31°21' E 032°19'0 0.0
2017-Aug-27 17:24N 31°21' E 032°19'0 0.0
2017-Aug-27 16:54N 31°21' E 032°19'0 0.0
2017-Aug-27 14:48N 31°21' E 032°19'0 0.0
2017-Aug-27 13:36N 31°21' E 032°19'0 0.1
2017-Aug-27 13:30N 31°21' E 032°19'0 0.0
2017-Aug-27 13:00N 31°21' E 032°19'0 0.0
2017-Aug-27 12:30N 31°21' E 032°19'0 0.0
2017-Aug-27 12:00N 31°21' E 032°19'0 0.0
2017-Aug-27 05:38N 31°21' E 032°19'1 3.4
2017-Aug-27 05:22N 31°22' E 032°19'3 8.0
2017-Aug-27 05:00N 31°25' E 032°19'713.4
2017-Aug-27 04:31N 31°30' E 032°14'814.3
2017-Aug-27 03:59N 31°36' E 032°08'814.1
2017-Aug-27 03:26N 31°41' E 032°01'1313.9
2017-Aug-27 02:30N 31°48' E 031°48'1614.1
2017-Aug-27 01:24N 31°54' E 031°32'614.2
2017-Aug-27 01:00N 31°56' E 031°26'914.3
2017-Aug-27 00:23N 32°01' E 031°16'514.4
2017-Aug-27 00:00N 32°03' E 031°10'2014.7
2017-Aug-26 22:39N 32°10' E 030°49'314.9
2017-Aug-26 22:25N 32°12' E 030°45'1314.5
2017-Aug-26 21:33N 32°17' E 030°32'114.4
2017-Aug-26 21:30N 32°17' E 030°31'714.2
2017-Aug-26 21:00N 32°20' E 030°23'714.2
2017-Aug-26 20:29N 32°23' E 030°15'1214.2
2017-Aug-26 19:39N 32°27' E 030°02'61413.3
2017-Aug-24 21:16N 35°26' E 018°13'16711.5
2017-Aug-24 06:49N 36°14' E 014°57'514.3
2017-Aug-24 06:30N 36°15' E 014°51'714.3
2017-Aug-24 06:00N 36°18' E 014°43'714.3
2017-Aug-24 05:30N 36°20' E 014°35'714.1
2017-Aug-24 05:00N 36°22' E 014°26'713.8
2017-Aug-24 04:30N 36°24' E 014°18'714.1
2017-Aug-24 04:00N 36°26' E 014°09'714.1
2017-Aug-24 03:29N 36°28' E 014°01'714.1
2017-Aug-24 03:00N 36°30' E 013°53'714.1
2017-Aug-24 02:30N 36°32' E 013°44'714.2
2017-Aug-24 01:59N 36°34' E 013°36'714.2
2017-Aug-24 01:29N 36°36' E 013°27'714.1
2017-Aug-24 01:00N 36°38' E 013°19'713.8
2017-Aug-24 00:30N 36°40' E 013°11'713.8
2017-Aug-23 23:59N 36°43' E 013°03'713.7
2017-Aug-23 23:30N 36°45' E 012°55'713.5
2017-Aug-23 23:00N 36°48' E 012°47'713.4
2017-Aug-23 22:30N 36°51' E 012°40'713.3
2017-Aug-23 22:00N 36°54' E 012°32'713.4
2017-Aug-23 21:30N 36°56' E 012°25'713.1
2017-Aug-23 21:00N 36°59' E 012°17'14113.4
2017-Aug-23 10:29N 37°39' E 009°27'714.1
2017-Aug-23 10:00N 37°40' E 009°18'714.3
2017-Aug-23 09:30N 37°41' E 009°10'714.3
2017-Aug-23 09:00N 37°42' E 009°01'2214.0
2017-Aug-23 07:27N 37°44' E 008°33'613.8
2017-Aug-23 07:00N 37°43' E 008°26'814.0
2017-Aug-23 06:27N 37°41' E 008°16'714.6
2017-Aug-23 05:59N 37°40' E 008°08'714.6
2017-Aug-23 05:30N 37°39' E 007°59'814.2
2017-Aug-23 04:56N 37°38' E 007°48'1514.0
2017-Aug-23 03:53N 37°36' E 007°30'1214.4
2017-Aug-23 03:03N 37°34' E 007°15'514.1
2017-Aug-23 02:42N 37°33' E 007°09'314.0
2017-Aug-23 02:30N 37°33' E 007°06'713.8
2017-Aug-23 01:59N 37°31' E 006°57'3813.6
2017-Aug-22 23:10N 37°25' E 006°09'6013.5
2017-Aug-22 18:42N 37°16' E 004°54'514.0
2017-Aug-22 18:19N 37°15' E 004°48'614.1
2017-Aug-22 17:53N 37°14' E 004°40'614.1
2017-Aug-22 17:30N 37°13' E 004°33'713.7
2017-Aug-22 16:59N 37°12' E 004°25'913.9
2017-Aug-22 16:21N 37°11' E 004°14'2913.7
2017-Aug-22 14:16N 37°07' E 003°38'4213.7
2017-Aug-22 11:11N 36°60' E 002°46'5913.2
2017-Aug-22 06:42N 36°50' E 001°33'513.3
2017-Aug-22 06:20N 36°50' E 001°27'413.5
2017-Aug-22 06:00N 36°49' E 001°22'1313.6
2017-Aug-22 05:03N 36°47' E 001°05'113.9
2017-Aug-22 05:00N 36°47' E 001°05'713.4
2017-Aug-22 04:29N 36°46' E 000°56'613.3
2017-Aug-22 04:00N 36°45' E 000°48'713.7
2017-Aug-22 03:29N 36°44' E 000°40'713.5
2017-Aug-22 03:00N 36°43' E 000°31'713.2
2017-Aug-22 02:30N 36°42' E 000°23'713.0
2017-Aug-22 02:00N 36°41' E 000°15'712.9
2017-Aug-22 01:30N 36°40' E 000°07'712.9
2017-Aug-22 00:57N 36°38' W 000°01'812.6
2017-Aug-22 00:21N 36°37' W 000°11'512.5
2017-Aug-21 23:59N 36°36' W 000°16'612.7
2017-Aug-21 23:30N 36°36' W 000°24'712.9
2017-Aug-21 23:00N 36°35' W 000°32'613.0
2017-Aug-21 22:30N 36°34' W 000°40'611.8
2017-Aug-21 22:00N 36°33' W 000°47'812.8
2017-Aug-21 21:24N 36°32' W 000°57'712.9
2017-Aug-21 20:51N 36°30' W 001°05'19913.4
2017-Aug-21 05:57N 36°01' W 005°09'613.9
2017-Aug-21 05:31N 35°60' W 005°17'713.0
2017-Aug-21 05:01N 35°58' W 005°25'2213.9
2017-Aug-21 03:27N 35°55' W 005°51'7312.2
2017-Aug-20 21:31N 36°08' W 007°19'112.3
2017-Aug-20 21:27N 36°08' W 007°20'912.4
2017-Aug-20 20:43N 36°11' W 007°31'612.6
2017-Aug-20 20:12N 36°13' W 007°39'1513.3
2017-Aug-20 19:04N 36°16' W 007°57'10112.4
2017-Aug-20 10:56N 37°13' W 009°41'613.9
2017-Aug-20 10:30N 37°18' W 009°43'713.9
2017-Aug-20 10:00N 37°25' W 009°45'714.0
2017-Aug-20 09:30N 37°32' W 009°46'713.7
2017-Aug-20 09:01N 37°38' W 009°48'713.5
2017-Aug-20 08:30N 37°45' W 009°50'713.3
2017-Aug-20 08:01N 37°52' W 009°52'713.6
2017-Aug-20 07:30N 37°58' W 009°54'714.0
2017-Aug-20 07:01N 38°05' W 009°56'713.9
2017-Aug-20 06:30N 38°12' W 009°57'713.7
2017-Aug-20 06:00N 38°19' W 009°59'713.8
2017-Aug-20 05:30N 38°25' W 010°02'714.0
2017-Aug-20 05:00N 38°32' W 010°03'713.8
2017-Aug-20 04:30N 38°39' W 010°05'713.7
2017-Aug-20 04:00N 38°46' W 010°07'714.0
2017-Aug-20 03:30N 38°53' W 010°06'713.9
2017-Aug-20 03:00N 38°60' W 010°06'713.5
2017-Aug-20 02:30N 39°06' W 010°06'714.0
2017-Aug-20 02:01N 39°13' W 010°06'713.8
2017-Aug-20 01:30N 39°20' W 010°07'714.1
2017-Aug-20 01:00N 39°27' W 010°07'714.2
2017-Aug-20 00:30N 39°34' W 010°06'714.2
2017-Aug-20 00:00N 39°41' W 010°06'714.1
2017-Aug-19 23:30N 39°48' W 010°06'714.2
2017-Aug-19 23:00N 39°56' W 010°07'714.0
2017-Aug-19 22:30N 40°03' W 010°07'714.1
2017-Aug-19 22:00N 40°10' W 010°06'714.0
2017-Aug-19 21:30N 40°17' W 010°06'714.2
2017-Aug-19 21:00N 40°24' W 010°07'714.7
2017-Aug-19 20:30N 40°31' W 010°07'714.7
2017-Aug-19 20:00N 40°38' W 010°07'714.7
2017-Aug-19 19:30N 40°46' W 010°07'714.8
2017-Aug-19 19:00N 40°53' W 010°07'814.6
2017-Aug-19 18:27N 41°01' W 010°06'714.4
2017-Aug-19 18:00N 41°08' W 010°07'714.6
2017-Aug-19 17:30N 41°15' W 010°07'  

Dump ship's entire track history